createdAt,value
2022-08-12T00:00:09.188Z,3.88
2022-08-12T00:02:55.417Z,4.75
2022-08-12T00:05:58.310Z,4.70
2022-08-12T00:08:54.716Z,11.13
2022-08-12T00:11:40.509Z,5.68
2022-08-12T00:14:26.119Z,7.80
2022-08-12T00:17:11.684Z,6.60
2022-08-12T00:19:57.365Z,6.10
2022-08-12T00:22:42.812Z,4.07
2022-08-12T00:26:19.660Z,6.07
2022-08-12T00:28:34.661Z,5.07
2022-08-12T00:31:20.141Z,5.65
2022-08-12T00:34:05.569Z,7.28
2022-08-12T00:36:50.900Z,5.63
2022-08-12T00:39:36.479Z,7.18
2022-08-12T00:42:13.042Z,3.75
2022-08-12T00:44:45.468Z,7.78
2022-08-12T00:47:24.843Z,7.55
2022-08-12T00:49:54.552Z,4.93
2022-08-12T00:52:21.967Z,7.28
2022-08-12T00:54:57.474Z,3.80
2022-08-12T00:57:38.465Z,5.07
2022-08-12T01:00:11.001Z,11.52
2022-08-12T01:02:40.563Z,6.18
2022-08-12T01:05:33.472Z,11.27
2022-08-12T01:08:19.049Z,3.67
2022-08-12T01:11:05.847Z,4.15
2022-08-12T01:13:39.126Z,3.72
2022-08-12T01:16:08.076Z,6.47
2022-08-12T01:18:36.912Z,6.20
2022-08-12T01:21:34.127Z,7.22
2022-08-12T01:24:30.390Z,3.95
2022-08-12T01:26:55.255Z,3.53
2022-08-12T01:29:28.536Z,5.25
2022-08-12T01:32:05.070Z,4.00
2022-08-12T01:34:37.347Z,6.78
2022-08-12T01:37:07.887Z,4.55
2022-08-12T01:40:34.439Z,8.35
2022-08-12T01:42:39.539Z,5.80
2022-08-12T01:45:07.472Z,6.50
2022-08-12T01:48:18.592Z,7.07
2022-08-12T01:51:07.684Z,5.70
2022-08-12T01:53:53.264Z,7.20
2022-08-12T01:56:24.408Z,4.03
2022-08-12T01:59:13.079Z,6.68
2022-08-12T02:01:41.582Z,6.10
2022-08-12T02:04:42.365Z,5.00
2022-08-12T02:07:56.781Z,5.45
2022-08-12T02:11:13.898Z,6.05
2022-08-12T02:14:02.010Z,5.68
2022-08-12T02:16:56.522Z,8.57
2022-08-12T02:19:50.987Z,5.57
2022-08-12T02:22:30.111Z,8.30
2022-08-12T02:25:05.274Z,6.43
2022-08-12T02:27:40.039Z,6.40
2022-08-12T02:30:12.601Z,7.07
2022-08-12T02:32:42.141Z,4.97
2022-08-12T02:35:24.253Z,5.88
2022-08-12T02:37:54.112Z,7.20
2022-08-12T02:40:21.898Z,8.35
2022-08-12T02:42:55.673Z,11.45
2022-08-12T02:45:31.109Z,6.97
2022-08-12T02:48:04.792Z,6.35
2022-08-12T02:50:36.649Z,5.90
2022-08-12T02:53:04.363Z,14.85
2022-08-12T02:55:36.123Z,11.60
2022-08-12T02:58:09.234Z,10.23
2022-08-12T03:00:40.369Z,7.20
2022-08-12T03:03:10.283Z,8.43
2022-08-12T03:05:45.136Z,8.25
2022-08-12T03:08:23.431Z,8.40
2022-08-12T03:11:14.531Z,7.15
2022-08-12T03:13:47.224Z,9.75
2022-08-12T03:16:14.723Z,7.13
2022-08-12T03:18:45.761Z,6.72
2022-08-12T03:21:16.741Z,7.97
2022-08-12T03:23:45.875Z,5.85
2022-08-12T03:26:14.566Z,9.02
2022-08-12T03:28:51.014Z,7.43
2022-08-12T03:31:33.646Z,13.85
2022-08-12T03:34:14.291Z,6.88
2022-08-12T03:36:42.564Z,7.95
2022-08-12T03:39:17.078Z,8.60
2022-08-12T03:47:45.647Z,9.47
2022-08-12T03:50:31.406Z,7.55
2022-08-12T03:53:16.871Z,8.95
2022-08-12T03:56:02.276Z,15.38
2022-08-12T03:58:47.720Z,7.95
2022-08-12T04:01:14.644Z,12.73
2022-08-12T04:03:53.708Z,7.45
2022-08-12T04:06:34.277Z,13.30
2022-08-12T04:09:01.397Z,11.23
2022-08-12T04:11:47.640Z,7.22
2022-08-12T04:14:20.632Z,11.98
2022-08-12T04:16:51.466Z,11.98
2022-08-12T04:19:20.322Z,12.80
2022-08-12T04:22:01.132Z,9.13
2022-08-12T04:24:38.015Z,9.82
2022-08-12T04:27:09.834Z,7.80
2022-08-12T04:30:29.981Z,14.38
2022-08-12T04:32:26.529Z,9.00
2022-08-12T04:34:53.781Z,14.85
2022-08-12T04:37:21.610Z,9.02
2022-08-12T04:39:48.847Z,10.90
2022-08-12T04:42:16.098Z,14.05
2022-08-12T04:44:43.255Z,9.75
2022-08-12T04:47:14.277Z,9.65
2022-08-12T04:49:44.469Z,10.25
2022-08-12T04:52:11.842Z,8.88
2022-08-12T04:54:38.674Z,6.50
2022-08-12T04:57:05.898Z,9.75
2022-08-12T04:59:47.005Z,11.32
2022-08-12T05:02:21.331Z,15.75
2022-08-12T05:04:55.614Z,12.48
2022-08-12T05:07:23.010Z,10.20
2022-08-12T05:09:58.885Z,12.65
2022-08-12T05:12:34.188Z,17.15
2022-08-12T05:15:00.937Z,10.45
2022-08-12T05:17:28.042Z,12.88
2022-08-12T05:19:57.191Z,8.43
2022-08-12T05:22:27.917Z,11.07
2022-08-12T05:24:54.859Z,9.82
2022-08-12T05:27:22.809Z,9.18
2022-08-12T05:30:05.281Z,11.18
2022-08-12T05:32:36.341Z,11.52
2022-08-12T05:35:06.649Z,9.85
2022-08-12T05:37:34.667Z,9.32
2022-08-12T05:40:08.314Z,8.82
2022-08-12T05:42:37.749Z,11.73
2022-08-12T05:45:04.957Z,10.68
2022-08-12T05:47:40.689Z,10.82
2022-08-12T05:50:20.629Z,9.25
2022-08-12T05:52:48.087Z,11.40
2022-08-12T05:55:15.212Z,16.70
2022-08-12T05:57:42.245Z,16.52
2022-08-12T06:00:09.391Z,14.32
2022-08-12T06:02:36.084Z,10.50
2022-08-12T06:05:02.908Z,13.27
2022-08-12T06:07:59.277Z,13.10
2022-08-12T06:10:17.944Z,11.35
2022-08-12T06:13:02.287Z,15.05
2022-08-12T06:15:29.971Z,13.57
2022-08-12T06:18:13.653Z,11.70
2022-08-12T06:20:43.229Z,13.57
2022-08-12T06:23:10.670Z,11.10
2022-08-12T06:25:37.577Z,17.40
2022-08-12T06:28:14.405Z,11.95
2022-08-12T06:30:41.216Z,11.25
2022-08-12T06:33:22.254Z,17.40
2022-08-12T06:35:51.218Z,10.45
2022-08-12T06:38:19.890Z,19.50
2022-08-12T06:41:08.457Z,17.98
2022-08-12T06:44:04.995Z,13.38
2022-08-12T06:46:23.943Z,16.90
2022-08-12T06:48:58.791Z,13.02
2022-08-12T06:51:27.923Z,19.73
2022-08-12T06:53:55.998Z,13.13
2022-08-12T06:56:39.883Z,16.15
2022-08-12T06:59:13.949Z,27.75
2022-08-12T07:01:40.739Z,13.52
2022-08-12T07:04:35.764Z,16.42
2022-08-12T07:07:05.384Z,17.35
2022-08-12T07:10:03.676Z,19.58
2022-08-12T07:12:22.380Z,20.65
2022-08-12T07:14:52.630Z,21.00
2022-08-12T07:17:19.281Z,21.77
2022-08-12T07:19:48.638Z,28.10
2022-08-12T07:22:16.022Z,28.10
2022-08-12T07:24:42.701Z,27.30
2022-08-12T07:27:09.520Z,30.27
2022-08-12T07:30:03.936Z,33.78
2022-08-12T07:32:24.629Z,34.75
2022-08-12T07:34:54.503Z,32.90
2022-08-12T07:37:21.469Z,36.47
2022-08-12T07:39:50.107Z,38.88
2022-08-12T07:42:25.408Z,37.03
2022-08-12T07:44:53.228Z,48.83
2022-08-12T07:47:19.936Z,35.17
2022-08-12T07:50:05.461Z,42.00
2022-08-12T07:52:34.870Z,38.60
2022-08-12T07:55:03.335Z,32.60
2022-08-12T07:57:32.529Z,33.05
2022-08-12T08:00:03.659Z,30.58
2022-08-12T08:02:33.528Z,23.52
2022-08-12T08:05:00.644Z,20.13
2022-08-12T08:07:30.387Z,23.63
2022-08-12T08:09:59.420Z,22.13
2022-08-12T08:12:49.307Z,20.92
2022-08-12T08:15:16.719Z,18.88
2022-08-12T08:18:01.631Z,15.68
2022-08-12T08:20:45.534Z,15.32
2022-08-12T08:23:17.025Z,12.95
2022-08-12T08:25:45.147Z,15.90
2022-08-12T08:28:18.890Z,17.13
2022-08-12T08:30:47.759Z,17.23
2022-08-12T08:33:24.547Z,12.50
2022-08-12T08:36:05.228Z,18.88
2022-08-12T08:38:35.339Z,13.32
2022-08-12T08:42:14.155Z,14.43
2022-08-12T08:44:11.765Z,15.25
2022-08-12T08:46:40.856Z,18.00
2022-08-12T08:49:08.195Z,19.30
2022-08-12T08:51:35.208Z,12.90
2022-08-12T08:54:02.092Z,14.65
2022-08-12T08:56:31.913Z,11.48
2022-08-12T08:58:59.133Z,13.07
2022-08-12T09:01:26.544Z,13.30
2022-08-12T09:05:08.116Z,15.77
2022-08-12T09:06:55.835Z,10.80
2022-08-12T09:09:23.978Z,12.50
2022-08-12T09:12:12.184Z,18.38
2022-08-12T09:14:46.978Z,10.23
2022-08-12T09:17:21.006Z,11.02
2022-08-12T09:19:55.232Z,11.88
2022-08-12T09:22:28.576Z,10.98
2022-08-12T09:24:56.187Z,16.75
2022-08-12T09:27:57.818Z,11.73
2022-08-12T09:30:15.924Z,10.18
2022-08-12T09:33:03.919Z,13.90
2022-08-12T09:35:33.682Z,10.40
2022-08-12T09:38:25.595Z,14.88
2022-08-12T09:42:08.517Z,11.95
2022-08-12T09:44:05.503Z,17.42
2022-08-12T09:46:34.457Z,12.00
2022-08-12T09:49:04.107Z,11.50
2022-08-12T09:51:44.126Z,10.85
2022-08-12T09:54:32.724Z,5.20
2022-08-12T09:57:03.904Z,8.80
2022-08-12T10:00:17.601Z,8.13
2022-08-12T10:02:42.719Z,8.02
2022-08-12T10:05:13.989Z,8.07
2022-08-12T10:07:44.630Z,13.73
2022-08-12T10:10:23.033Z,8.85
2022-08-12T10:13:12.935Z,7.53
2022-08-12T10:16:00.976Z,8.80
2022-08-12T10:18:32.726Z,5.30
2022-08-12T10:21:09.463Z,8.63
2022-08-12T10:23:39.867Z,5.93
2022-08-12T10:26:37.771Z,7.18
2022-08-12T10:30:37.385Z,9.18
2022-08-12T10:32:45.021Z,10.07
2022-08-12T10:38:34.721Z,14.25
2022-08-12T10:40:28.612Z,6.57
2022-08-12T10:43:16.836Z,5.43
2022-08-12T10:45:46.126Z,4.30
2022-08-12T10:48:21.380Z,10.90
2022-08-12T10:51:03.400Z,7.93
2022-08-12T10:53:44.075Z,4.53
2022-08-12T10:56:17.308Z,9.75
2022-08-12T10:58:46.949Z,6.07
2022-08-12T11:01:50.182Z,5.20
2022-08-12T11:04:23.561Z,5.40
2022-08-12T11:07:09.934Z,6.68
2022-08-12T11:09:41.720Z,4.10
2022-08-12T11:12:56.543Z,5.95
2022-08-12T11:15:19.273Z,6.00
2022-08-12T11:17:53.363Z,4.60
2022-08-12T11:20:30.509Z,3.13
2022-08-12T11:23:03.609Z,7.25
2022-08-12T11:25:56.826Z,5.28
2022-08-12T11:28:17.867Z,4.00
2022-08-12T11:31:00.388Z,4.10
2022-08-12T11:34:06.422Z,3.50
2022-08-12T11:36:13.989Z,10.18
2022-08-12T11:38:41.600Z,7.88
2022-08-12T11:41:09.694Z,9.35
2022-08-12T11:43:50.542Z,4.88
2022-08-12T11:46:22.865Z,7.53
2022-08-12T11:48:52.108Z,4.78
2022-08-12T11:51:20.704Z,5.20
2022-08-12T11:53:58.872Z,6.55
2022-08-12T11:56:38.923Z,7.13
2022-08-12T12:02:00.842Z,5.55
2022-08-12T12:04:30.001Z,7.40
2022-08-12T12:07:06.729Z,6.32
2022-08-12T12:09:51.877Z,4.50
2022-08-12T12:12:19.814Z,3.28
2022-08-12T12:14:54.795Z,5.70
2022-08-12T12:17:24.431Z,4.35
2022-08-12T12:19:53.011Z,4.35
2022-08-12T12:22:23.392Z,7.53
2022-08-12T12:24:54.016Z,10.10
2022-08-12T12:27:47.236Z,7.72
2022-08-12T12:30:19.725Z,5.70
2022-08-12T12:32:55.517Z,4.55
2022-08-12T12:36:06.011Z,4.35
2022-08-12T12:38:12.081Z,5.15
2022-08-12T12:40:41.441Z,8.35
2022-08-12T12:43:11.211Z,6.13
2022-08-12T12:45:44.650Z,8.30
2022-08-12T12:48:18.812Z,4.18
2022-08-12T12:51:48.428Z,4.53
2022-08-12T12:54:07.812Z,4.70
2022-08-12T12:56:40.322Z,8.65
2022-08-12T12:59:07.554Z,3.65
2022-08-12T13:01:55.183Z,5.25
2022-08-12T13:04:22.482Z,5.72
2022-08-12T13:06:52.017Z,3.20
2022-08-12T13:09:19.500Z,5.03
2022-08-12T13:11:53.234Z,5.20
2022-08-12T13:14:28.694Z,4.00
2022-08-12T13:17:02.858Z,5.78
2022-08-12T13:19:38.903Z,5.72
2022-08-12T13:22:18.624Z,5.20
2022-08-12T13:24:54.731Z,3.75
2022-08-12T13:27:34.456Z,3.00
2022-08-12T13:30:11.291Z,4.80
2022-08-12T13:32:56.813Z,5.80
2022-08-12T13:36:06.044Z,11.05
2022-08-12T13:38:34.962Z,5.07
2022-08-12T13:41:03.608Z,4.05
2022-08-12T13:43:41.065Z,5.82
2022-08-12T13:46:12.381Z,11.18
2022-08-12T13:48:44.700Z,2.53
2022-08-12T13:51:12.476Z,5.37
2022-08-12T13:53:58.379Z,5.65
2022-08-12T13:56:30.560Z,4.22
2022-08-12T13:59:05.495Z,3.72
2022-08-12T14:01:40.576Z,4.67
2022-08-12T14:04:11.691Z,8.60
2022-08-12T14:06:39.699Z,5.18
2022-08-12T14:09:17.526Z,3.80
2022-08-12T14:11:59.198Z,4.32
2022-08-12T14:14:31.605Z,6.10
2022-08-12T14:17:10.003Z,3.75
2022-08-12T14:19:48.794Z,3.72
2022-08-12T14:22:20.077Z,3.58
2022-08-12T14:24:46.724Z,2.78
2022-08-12T14:27:13.821Z,8.95
2022-08-12T14:30:05.082Z,6.32
2022-08-12T14:32:34.305Z,7.72
2022-08-12T14:35:03.379Z,2.40
2022-08-12T14:37:56.407Z,2.70
2022-08-12T14:40:18.498Z,5.05
2022-08-12T14:42:46.986Z,3.90
2022-08-12T14:45:14.320Z,3.70
2022-08-12T14:47:58.745Z,4.43
2022-08-12T14:50:58.890Z,2.47
2022-08-12T14:54:52.899Z,3.00
2022-08-12T14:59:20.336Z,4.68
2022-08-12T15:01:50.611Z,3.70
2022-08-12T15:04:22.453Z,2.38
2022-08-12T15:06:52.149Z,4.82
2022-08-12T15:09:19.503Z,3.33
2022-08-12T15:12:03.445Z,3.45
2022-08-12T15:14:31.464Z,2.83
2022-08-12T15:17:00.465Z,2.75
2022-08-12T15:20:10.925Z,6.75
2022-08-12T15:22:37.479Z,5.45
2022-08-12T15:25:03.481Z,6.22
2022-08-12T15:28:10.928Z,6.60
2022-08-12T15:30:26.612Z,4.65
2022-08-12T15:32:57.212Z,3.95
2022-08-12T15:35:27.439Z,5.07
2022-08-12T15:38:13.713Z,5.07
2022-08-12T15:40:49.299Z,3.88
2022-08-12T15:43:50.922Z,7.75
2022-08-12T15:46:15.903Z,3.67
2022-08-12T15:48:46.947Z,5.32
2022-08-12T15:51:58.600Z,4.28
2022-08-12T15:54:30.947Z,7.18
2022-08-12T15:57:05.987Z,6.75
2022-08-12T15:59:51.975Z,11.87
2022-08-12T16:02:22.718Z,7.10
2022-08-12T16:04:53.523Z,8.20
2022-08-12T16:07:30.094Z,2.97
2022-08-12T16:10:06.825Z,10.25
2022-08-12T16:12:43.420Z,5.88
2022-08-12T16:15:23.071Z,5.38
2022-08-12T16:18:19.187Z,5.65
2022-08-12T16:20:41.520Z,9.35
2022-08-12T16:23:26.152Z,3.70
2022-08-12T16:26:05.713Z,7.40
2022-08-12T16:28:40.428Z,5.45
2022-08-12T16:31:12.456Z,3.58
2022-08-12T16:34:00.012Z,8.07
2022-08-12T16:36:29.105Z,5.47
2022-08-12T16:38:55.733Z,6.78
2022-08-12T16:41:23.101Z,4.45
2022-08-12T16:43:50.462Z,6.18
2022-08-12T16:46:32.321Z,6.25
2022-08-12T16:49:09.291Z,5.20
2022-08-12T16:51:45.987Z,6.40
2022-08-12T16:54:16.419Z,6.22
2022-08-12T16:56:55.231Z,4.53
2022-08-12T16:59:31.119Z,4.40
2022-08-12T17:02:31.715Z,9.50
2022-08-12T17:05:03.533Z,6.03
2022-08-12T17:07:36.728Z,5.32
2022-08-12T17:10:06.684Z,3.37
2022-08-12T17:12:33.759Z,8.98
2022-08-12T17:15:25.697Z,4.65
2022-08-12T17:18:15.341Z,7.85
2022-08-12T17:20:47.361Z,6.25
2022-08-12T17:23:16.475Z,4.22
2022-08-12T17:25:52.044Z,7.00
2022-08-12T17:28:21.256Z,9.63
2022-08-12T17:30:59.481Z,5.63
2022-08-12T17:33:27.593Z,4.85
2022-08-12T17:35:58.367Z,4.53
2022-08-12T17:38:25.196Z,5.50
2022-08-12T17:40:51.922Z,3.22
2022-08-12T17:43:57.130Z,5.00
2022-08-12T17:46:12.885Z,5.78
2022-08-12T17:48:55.942Z,3.22
2022-08-12T17:51:25.262Z,9.15
2022-08-12T17:54:10.335Z,7.82
2022-08-12T17:56:40.619Z,11.45
2022-08-12T17:59:12.659Z,5.95
2022-08-12T18:01:45.438Z,11.55
2022-08-12T18:04:22.848Z,3.42
2022-08-12T18:07:01.699Z,7.18
2022-08-12T18:09:32.001Z,6.57
2022-08-12T18:12:24.465Z,3.60
2022-08-12T18:15:01.947Z,11.25
2022-08-12T18:17:30.300Z,5.38
2022-08-12T18:20:06.047Z,6.00
2022-08-12T18:22:34.959Z,4.93
2022-08-12T18:25:06.292Z,5.68
2022-08-12T18:27:47.144Z,10.07
2022-08-12T18:30:20.439Z,3.35
2022-08-12T18:33:03.454Z,2.85
2022-08-12T18:35:46.613Z,4.55
2022-08-12T18:38:20.684Z,4.47
2022-08-12T18:41:09.651Z,5.45
2022-08-12T18:44:00.071Z,3.60
2022-08-12T18:46:48.936Z,5.82
2022-08-12T18:49:39.204Z,8.15
2022-08-12T18:52:07.994Z,8.45
2022-08-12T18:54:41.569Z,3.28
2022-08-12T18:58:06.546Z,4.07
2022-08-12T19:00:21.301Z,3.17
2022-08-12T19:02:50.832Z,6.18
2022-08-12T19:05:17.711Z,4.13
2022-08-12T19:08:02.236Z,3.85
2022-08-12T19:10:31.687Z,2.88
2022-08-12T19:13:24.008Z,5.22
2022-08-12T19:15:53.617Z,4.25
2022-08-12T19:18:22.269Z,9.20
2022-08-12T19:20:50.738Z,3.17
2022-08-12T19:23:21.505Z,4.13
2022-08-12T19:25:59.845Z,7.35
2022-08-12T19:28:34.529Z,6.70
2022-08-12T19:31:56.660Z,7.00
2022-08-12T19:38:03.097Z,6.00
2022-08-12T19:40:31.613Z,4.57
2022-08-12T19:43:19.251Z,6.15
2022-08-12T19:45:53.596Z,3.17
2022-08-12T19:48:22.663Z,5.57
2022-08-12T19:50:53.371Z,8.70
2022-08-12T19:53:22.558Z,5.88
2022-08-12T19:55:54.237Z,14.65
2022-08-12T19:58:22.441Z,8.38
2022-08-12T20:00:53.063Z,5.40
2022-08-12T20:03:40.055Z,4.43
2022-08-12T20:06:23.517Z,7.10
2022-08-12T20:08:55.873Z,3.60
2022-08-12T20:12:13.269Z,6.18
2022-08-12T20:14:19.022Z,3.47
2022-08-12T20:16:51.609Z,4.40
2022-08-12T20:19:21.145Z,6.05
2022-08-12T20:21:50.267Z,5.03
2022-08-12T20:24:17.060Z,5.45
2022-08-12T20:26:46.890Z,3.25
2022-08-12T20:29:16.597Z,4.63
2022-08-12T20:31:44.305Z,9.18
2022-08-12T20:34:12.487Z,3.55
2022-08-12T20:36:44.111Z,6.15
2022-08-12T20:39:35.905Z,4.93
2022-08-12T20:42:04.047Z,8.35
2022-08-12T20:44:39.791Z,6.57
2022-08-12T20:47:16.672Z,5.28
2022-08-12T20:49:46.274Z,4.55
2022-08-12T20:52:18.399Z,6.55
2022-08-12T20:54:52.751Z,4.45
2022-08-12T20:57:21.524Z,13.02
2022-08-12T20:59:51.772Z,7.63
2022-08-12T21:02:24.342Z,9.98
2022-08-12T21:05:19.987Z,3.47
2022-08-12T21:07:51.943Z,5.43
2022-08-12T21:10:20.782Z,3.72
2022-08-12T21:12:48.609Z,3.67
2022-08-12T21:15:18.056Z,4.13
2022-08-12T21:18:11.420Z,3.28
2022-08-12T21:20:52.327Z,6.88
2022-08-12T21:23:22.558Z,3.63
2022-08-12T21:25:51.209Z,3.90
2022-08-12T21:28:20.394Z,3.08
2022-08-12T21:31:11.320Z,3.90
2022-08-12T21:33:58.661Z,3.83
2022-08-12T21:36:32.345Z,4.00
2022-08-12T21:39:20.663Z,4.78
2022-08-12T21:41:51.189Z,6.47
2022-08-12T21:44:24.685Z,5.28
2022-08-12T21:47:20.951Z,4.93
2022-08-12T21:50:02.343Z,3.03
2022-08-12T21:52:40.446Z,3.63
2022-08-12T21:55:17.779Z,6.13
2022-08-12T21:57:50.486Z,4.90
2022-08-12T22:00:19.973Z,5.28
2022-08-12T22:03:05.137Z,3.20
2022-08-12T22:05:50.435Z,3.30
2022-08-12T22:08:22.051Z,8.13
2022-08-12T22:10:52.545Z,7.13
2022-08-12T22:14:08.043Z,4.97
2022-08-12T22:16:11.674Z,3.38
2022-08-12T22:18:40.847Z,5.45
2022-08-12T22:21:09.081Z,7.82
2022-08-12T22:24:04.155Z,3.25
2022-08-12T22:26:29.226Z,3.13
2022-08-12T22:29:22.664Z,6.03
2022-08-12T22:31:49.568Z,4.38
2022-08-12T22:34:18.365Z,7.63
2022-08-12T22:36:45.581Z,3.65
2022-08-12T22:39:15.957Z,4.50
2022-08-12T22:42:01.391Z,3.50
2022-08-12T22:44:54.943Z,4.22
2022-08-12T22:47:45.779Z,4.72
2022-08-12T22:50:27.477Z,3.97
2022-08-12T22:53:16.429Z,4.22
2022-08-12T22:55:59.986Z,5.50
2022-08-12T22:58:33.546Z,8.27
2022-08-12T23:01:02.607Z,3.40
2022-08-12T23:03:48.282Z,5.22
2022-08-12T23:06:19.401Z,3.50
2022-08-12T23:08:46.373Z,5.90
2022-08-12T23:11:13.141Z,9.15
2022-08-12T23:13:48.483Z,8.75
2022-08-12T23:16:27.912Z,6.65
2022-08-12T23:19:01.722Z,4.00
2022-08-12T23:22:05.677Z,6.03
2022-08-12T23:24:38.911Z,10.25
2022-08-12T23:27:43.976Z,6.30
2022-08-12T23:30:18.914Z,8.07
2022-08-12T23:32:54.662Z,5.63
2022-08-12T23:35:28.448Z,6.88
2022-08-12T23:38:30.733Z,5.32
2022-08-12T23:40:59.614Z,7.00
2022-08-12T23:43:26.546Z,8.25
2022-08-12T23:46:10.928Z,11.02
2022-08-12T23:48:38.142Z,9.55
2022-08-12T23:51:23.736Z,7.68
2022-08-12T23:53:54.956Z,4.93
2022-08-12T23:56:23.870Z,7.65
2022-08-12T23:58:54.993Z,7.18
